sensor_id;sensor_type;location;lat;lon;timestamp;P1;durP1;ratioP1;P2;durP2;ratioP2
10511;SDS011;5304;48.604;2.096;2023-01-30T00:00:08;22.40;;;13.20;;
10511;SDS011;5304;48.604;2.096;2023-01-30T00:02:53;26.07;;;13.67;;
10511;SDS011;5304;48.604;2.096;2023-01-30T00:05:37;22.63;;;14.27;;
10511;SDS011;5304;48.604;2.096;2023-01-30T00:08:22;28.17;;;14.67;;
10511;SDS011;5304;48.604;2.096;2023-01-30T00:11:08;26.00;;;13.80;;
10511;SDS011;5304;48.604;2.096;2023-01-30T00:13:54;24.07;;;15.03;;
10511;SDS011;5304;48.604;2.096;2023-01-30T00:16:38;26.80;;;14.70;;
10511;SDS011;5304;48.604;2.096;2023-01-30T00:19:22;25.80;;;15.07;;
10511;SDS011;5304;48.604;2.096;2023-01-30T00:22:06;24.97;;;14.23;;
10511;SDS011;5304;48.604;2.096;2023-01-30T00:24:51;27.40;;;14.23;;
10511;SDS011;5304;48.604;2.096;2023-01-30T00:27:35;25.73;;;14.77;;
10511;SDS011;5304;48.604;2.096;2023-01-30T00:30:19;26.53;;;14.03;;
10511;SDS011;5304;48.604;2.096;2023-01-30T00:33:03;24.07;;;13.13;;
10511;SDS011;5304;48.604;2.096;2023-01-30T00:35:48;28.63;;;14.33;;
10511;SDS011;5304;48.604;2.096;2023-01-30T00:38:34;25.40;;;14.70;;
10511;SDS011;5304;48.604;2.096;2023-01-30T00:41:18;24.20;;;13.50;;
10511;SDS011;5304;48.604;2.096;2023-01-30T00:44:05;26.03;;;13.90;;
10511;SDS011;5304;48.604;2.096;2023-01-30T00:47:08;27.90;;;14.23;;
10511;SDS011;5304;48.604;2.096;2023-01-30T00:49:53;26.23;;;14.30;;
10511;SDS011;5304;48.604;2.096;2023-01-30T00:52:37;25.07;;;13.30;;
10511;SDS011;5304;48.604;2.096;2023-01-30T00:55:21;23.47;;;13.53;;
10511;SDS011;5304;48.604;2.096;2023-01-30T00:58:06;23.30;;;13.37;;
10511;SDS011;5304;48.604;2.096;2023-01-30T01:00:50;25.27;;;14.13;;
10511;SDS011;5304;48.604;2.096;2023-01-30T01:03:35;22.47;;;13.57;;
10511;SDS011;5304;48.604;2.096;2023-01-30T01:06:19;24.77;;;14.13;;
10511;SDS011;5304;48.604;2.096;2023-01-30T01:09:04;23.00;;;13.40;;
10511;SDS011;5304;48.604;2.096;2023-01-30T01:11:49;23.70;;;14.10;;
10511;SDS011;5304;48.604;2.096;2023-01-30T01:14:34;23.00;;;12.50;;
10511;SDS011;5304;48.604;2.096;2023-01-30T01:17:18;25.40;;;13.93;;
10511;SDS011;5304;48.604;2.096;2023-01-30T01:20:03;26.33;;;14.27;;
10511;SDS011;5304;48.604;2.096;2023-01-30T01:22:51;24.33;;;13.90;;
10511;SDS011;5304;48.604;2.096;2023-01-30T01:25:37;26.70;;;13.87;;
10511;SDS011;5304;48.604;2.096;2023-01-30T01:28:21;25.00;;;14.30;;
10511;SDS011;5304;48.604;2.096;2023-01-30T01:31:09;24.43;;;12.80;;
10511;SDS011;5304;48.604;2.096;2023-01-30T01:33:55;25.70;;;14.37;;
10511;SDS011;5304;48.604;2.096;2023-01-30T01:36:40;25.13;;;13.47;;
10511;SDS011;5304;48.604;2.096;2023-01-30T01:39:24;25.90;;;13.30;;
10511;SDS011;5304;48.604;2.096;2023-01-30T01:42:29;25.33;;;12.30;;
10511;SDS011;5304;48.604;2.096;2023-01-30T01:45:18;22.37;;;12.87;;
10511;SDS011;5304;48.604;2.096;2023-01-30T01:48:13;24.80;;;13.50;;
10511;SDS011;5304;48.604;2.096;2023-01-30T01:53:55;24.17;;;13.47;;
10511;SDS011;5304;48.604;2.096;2023-01-30T01:56:43;26.70;;;14.50;;
10511;SDS011;5304;48.604;2.096;2023-01-30T01:59:41;23.33;;;13.97;;
10511;SDS011;5304;48.604;2.096;2023-01-30T02:02:30;28.17;;;14.57;;
10511;SDS011;5304;48.604;2.096;2023-01-30T02:05:15;24.33;;;14.07;;
10511;SDS011;5304;48.604;2.096;2023-01-30T02:11:15;25.00;;;13.70;;
10511;SDS011;5304;48.604;2.096;2023-01-30T02:14:05;24.23;;;13.93;;
10511;SDS011;5304;48.604;2.096;2023-01-30T02:16:50;26.03;;;13.50;;
10511;SDS011;5304;48.604;2.096;2023-01-30T02:47:34;25.63;;;13.70;;
10511;SDS011;5304;48.604;2.096;2023-01-30T02:50:25;22.77;;;12.27;;
10511;SDS011;5304;48.604;2.096;2023-01-30T02:53:20;24.43;;;13.57;;
10511;SDS011;5304;48.604;2.096;2023-01-30T02:56:04;26.23;;;14.30;;
10511;SDS011;5304;48.604;2.096;2023-01-30T02:58:53;24.20;;;14.03;;
10511;SDS011;5304;48.604;2.096;2023-01-30T03:08:00;21.53;;;13.50;;
10511;SDS011;5304;48.604;2.096;2023-01-30T03:10:57;24.67;;;14.17;;
10511;SDS011;5304;48.604;2.096;2023-01-30T03:13:51;26.53;;;13.67;;
10511;SDS011;5304;48.604;2.096;2023-01-30T03:16:41;24.47;;;13.37;;
10511;SDS011;5304;48.604;2.096;2023-01-30T03:19:27;26.53;;;13.80;;
10511;SDS011;5304;48.604;2.096;2023-01-30T03:22:12;24.93;;;13.90;;
10511;SDS011;5304;48.604;2.096;2023-01-30T03:24:57;25.70;;;13.80;;
10511;SDS011;5304;48.604;2.096;2023-01-30T03:27:42;22.00;;;12.93;;
10511;SDS011;5304;48.604;2.096;2023-01-30T03:30:27;23.20;;;13.50;;
10511;SDS011;5304;48.604;2.096;2023-01-30T03:33:12;19.20;;;12.07;;
10511;SDS011;5304;48.604;2.096;2023-01-30T03:35:56;21.93;;;12.83;;
10511;SDS011;5304;48.604;2.096;2023-01-30T03:38:41;26.83;;;13.67;;
10511;SDS011;5304;48.604;2.096;2023-01-30T03:41:25;22.20;;;12.70;;
10511;SDS011;5304;48.604;2.096;2023-01-30T03:44:10;25.00;;;12.83;;
10511;SDS011;5304;48.604;2.096;2023-01-30T03:46:54;27.83;;;14.33;;
10511;SDS011;5304;48.604;2.096;2023-01-30T03:49:39;24.90;;;13.33;;
10511;SDS011;5304;48.604;2.096;2023-01-30T03:52:24;25.03;;;13.67;;
10511;SDS011;5304;48.604;2.096;2023-01-30T03:55:08;24.33;;;14.00;;
10511;SDS011;5304;48.604;2.096;2023-01-30T03:57:54;24.47;;;13.87;;
10511;SDS011;5304;48.604;2.096;2023-01-30T04:00:39;24.37;;;13.87;;
10511;SDS011;5304;48.604;2.096;2023-01-30T04:03:23;22.17;;;12.90;;
10511;SDS011;5304;48.604;2.096;2023-01-30T04:06:08;24.77;;;13.97;;
10511;SDS011;5304;48.604;2.096;2023-01-30T04:08:53;26.23;;;13.90;;
10511;SDS011;5304;48.604;2.096;2023-01-30T04:11:37;25.10;;;14.43;;
10511;SDS011;5304;48.604;2.096;2023-01-30T04:14:21;22.17;;;13.40;;
10511;SDS011;5304;48.604;2.096;2023-01-30T04:17:06;28.57;;;13.70;;
10511;SDS011;5304;48.604;2.096;2023-01-30T04:19:50;24.13;;;13.77;;
10511;SDS011;5304;48.604;2.096;2023-01-30T04:22:34;23.10;;;13.27;;
10511;SDS011;5304;48.604;2.096;2023-01-30T04:25:19;22.40;;;13.07;;
10511;SDS011;5304;48.604;2.096;2023-01-30T04:28:04;26.27;;;14.20;;
10511;SDS011;5304;48.604;2.096;2023-01-30T04:30:51;22.30;;;12.40;;
10511;SDS011;5304;48.604;2.096;2023-01-30T04:33:36;22.93;;;13.70;;
10511;SDS011;5304;48.604;2.096;2023-01-30T04:36:22;27.17;;;13.77;;
10511;SDS011;5304;48.604;2.096;2023-01-30T04:39:07;21.60;;;12.90;;
10511;SDS011;5304;48.604;2.096;2023-01-30T04:41:51;23.07;;;12.97;;
10511;SDS011;5304;48.604;2.096;2023-01-30T04:44:35;22.70;;;13.23;;
10511;SDS011;5304;48.604;2.096;2023-01-30T04:47:20;22.70;;;13.37;;
10511;SDS011;5304;48.604;2.096;2023-01-30T04:50:05;23.07;;;14.10;;
10511;SDS011;5304;48.604;2.096;2023-01-30T04:52:50;24.67;;;14.40;;
10511;SDS011;5304;48.604;2.096;2023-01-30T04:55:34;21.43;;;12.67;;
10511;SDS011;5304;48.604;2.096;2023-01-30T04:58:19;29.20;;;14.97;;
10511;SDS011;5304;48.604;2.096;2023-01-30T05:04:08;24.13;;;13.93;;
10511;SDS011;5304;48.604;2.096;2023-01-30T05:06:52;21.83;;;13.90;;
10511;SDS011;5304;48.604;2.096;2023-01-30T05:09:37;20.27;;;12.57;;
10511;SDS011;5304;48.604;2.096;2023-01-30T05:12:21;21.10;;;12.77;;
10511;SDS011;5304;48.604;2.096;2023-01-30T05:15:06;24.73;;;12.93;;
10511;SDS011;5304;48.604;2.096;2023-01-30T05:17:50;21.67;;;12.93;;
10511;SDS011;5304;48.604;2.096;2023-01-30T05:20:35;24.30;;;12.83;;
10511;SDS011;5304;48.604;2.096;2023-01-30T05:23:19;24.03;;;13.40;;
10511;SDS011;5304;48.604;2.096;2023-01-30T05:26:05;21.50;;;11.83;;
10511;SDS011;5304;48.604;2.096;2023-01-30T05:28:53;22.43;;;13.40;;
10511;SDS011;5304;48.604;2.096;2023-01-30T05:31:39;21.10;;;12.73;;
10511;SDS011;5304;48.604;2.096;2023-01-30T05:34:23;21.17;;;11.57;;
10511;SDS011;5304;48.604;2.096;2023-01-30T05:37:07;21.90;;;12.73;;
10511;SDS011;5304;48.604;2.096;2023-01-30T05:39:52;21.10;;;12.37;;
10511;SDS011;5304;48.604;2.096;2023-01-30T05:42:38;27.40;;;13.13;;
10511;SDS011;5304;48.604;2.096;2023-01-30T05:45:22;24.60;;;13.37;;
10511;SDS011;5304;48.604;2.096;2023-01-30T05:48:06;22.53;;;12.57;;
10511;SDS011;5304;48.604;2.096;2023-01-30T05:50:51;23.33;;;12.50;;
10511;SDS011;5304;48.604;2.096;2023-01-30T05:53:36;21.47;;;12.03;;
10511;SDS011;5304;48.604;2.096;2023-01-30T05:56:20;22.50;;;13.10;;
10511;SDS011;5304;48.604;2.096;2023-01-30T05:59:06;21.37;;;13.07;;
10511;SDS011;5304;48.604;2.096;2023-01-30T06:01:54;22.03;;;12.67;;
10511;SDS011;5304;48.604;2.096;2023-01-30T06:04:38;21.30;;;12.17;;
10511;SDS011;5304;48.604;2.096;2023-01-30T06:07:23;22.83;;;12.40;;
10511;SDS011;5304;48.604;2.096;2023-01-30T06:10:07;22.17;;;13.30;;
10511;SDS011;5304;48.604;2.096;2023-01-30T06:12:52;24.13;;;13.57;;
10511;SDS011;5304;48.604;2.096;2023-01-30T06:15:37;26.67;;;13.33;;
10511;SDS011;5304;48.604;2.096;2023-01-30T06:18:21;24.33;;;12.83;;
10511;SDS011;5304;48.604;2.096;2023-01-30T06:21:06;22.67;;;13.00;;
10511;SDS011;5304;48.604;2.096;2023-01-30T06:23:51;24.80;;;12.87;;
10511;SDS011;5304;48.604;2.096;2023-01-30T06:26:35;20.50;;;13.10;;
10511;SDS011;5304;48.604;2.096;2023-01-30T06:29:20;25.53;;;13.57;;
10511;SDS011;5304;48.604;2.096;2023-01-30T06:32:04;24.83;;;14.77;;
10511;SDS011;5304;48.604;2.096;2023-01-30T06:34:48;29.20;;;14.57;;
10511;SDS011;5304;48.604;2.096;2023-01-30T06:37:32;24.70;;;13.37;;
10511;SDS011;5304;48.604;2.096;2023-01-30T06:40:16;27.43;;;13.83;;
10511;SDS011;5304;48.604;2.096;2023-01-30T06:43:01;23.53;;;14.23;;
10511;SDS011;5304;48.604;2.096;2023-01-30T06:45:45;25.17;;;13.47;;
10511;SDS011;5304;48.604;2.096;2023-01-30T06:48:30;24.97;;;13.80;;
10511;SDS011;5304;48.604;2.096;2023-01-30T06:51:14;25.63;;;14.20;;
10511;SDS011;5304;48.604;2.096;2023-01-30T06:53:59;24.03;;;13.70;;
10511;SDS011;5304;48.604;2.096;2023-01-30T06:56:43;27.50;;;13.60;;
10511;SDS011;5304;48.604;2.096;2023-01-30T06:59:28;26.10;;;13.97;;
10511;SDS011;5304;48.604;2.096;2023-01-30T07:02:12;25.73;;;14.17;;
10511;SDS011;5304;48.604;2.096;2023-01-30T07:04:57;25.50;;;13.77;;
10511;SDS011;5304;48.604;2.096;2023-01-30T07:07:41;24.17;;;13.23;;
10511;SDS011;5304;48.604;2.096;2023-01-30T07:10:25;26.23;;;13.87;;
10511;SDS011;5304;48.604;2.096;2023-01-30T07:13:12;25.80;;;13.77;;
10511;SDS011;5304;48.604;2.096;2023-01-30T07:15:56;23.47;;;13.07;;
10511;SDS011;5304;48.604;2.096;2023-01-30T07:18:41;25.07;;;13.47;;
10511;SDS011;5304;48.604;2.096;2023-01-30T07:21:25;24.23;;;13.10;;
10511;SDS011;5304;48.604;2.096;2023-01-30T07:24:10;24.17;;;13.00;;
10511;SDS011;5304;48.604;2.096;2023-01-30T07:26:54;23.73;;;13.37;;
10511;SDS011;5304;48.604;2.096;2023-01-30T07:29:39;25.93;;;14.80;;
10511;SDS011;5304;48.604;2.096;2023-01-30T07:32:26;25.90;;;13.37;;
10511;SDS011;5304;48.604;2.096;2023-01-30T07:35:11;25.70;;;13.50;;
10511;SDS011;5304;48.604;2.096;2023-01-30T07:37:55;25.87;;;13.13;;
10511;SDS011;5304;48.604;2.096;2023-01-30T07:40:40;23.27;;;13.53;;
10511;SDS011;5304;48.604;2.096;2023-01-30T07:43:25;22.63;;;13.27;;
10511;SDS011;5304;48.604;2.096;2023-01-30T07:46:09;25.63;;;13.93;;
10511;SDS011;5304;48.604;2.096;2023-01-30T07:48:53;21.87;;;13.77;;
10511;SDS011;5304;48.604;2.096;2023-01-30T07:51:37;26.37;;;14.30;;
10511;SDS011;5304;48.604;2.096;2023-01-30T07:54:22;23.20;;;13.17;;
10511;SDS011;5304;48.604;2.096;2023-01-30T07:57:06;22.60;;;14.37;;
10511;SDS011;5304;48.604;2.096;2023-01-30T07:59:51;21.37;;;12.53;;
10511;SDS011;5304;48.604;2.096;2023-01-30T08:02:35;24.53;;;13.53;;
10511;SDS011;5304;48.604;2.096;2023-01-30T08:05:20;25.03;;;13.37;;
10511;SDS011;5304;48.604;2.096;2023-01-30T08:08:04;23.83;;;13.60;;
10511;SDS011;5304;48.604;2.096;2023-01-30T08:10:49;24.60;;;13.57;;
10511;SDS011;5304;48.604;2.096;2023-01-30T08:13:33;24.77;;;13.93;;
10511;SDS011;5304;48.604;2.096;2023-01-30T08:16:18;22.80;;;13.23;;
10511;SDS011;5304;48.604;2.096;2023-01-30T08:19:02;23.83;;;13.30;;
10511;SDS011;5304;48.604;2.096;2023-01-30T08:21:49;28.83;;;14.80;;
10511;SDS011;5304;48.604;2.096;2023-01-30T08:24:33;24.37;;;14.43;;
10511;SDS011;5304;48.604;2.096;2023-01-30T08:27:18;23.70;;;13.80;;
10511;SDS011;5304;48.604;2.096;2023-01-30T08:30:04;22.37;;;13.67;;
10511;SDS011;5304;48.604;2.096;2023-01-30T08:32:49;23.57;;;12.27;;
10511;SDS011;5304;48.604;2.096;2023-01-30T08:35:34;19.97;;;13.07;;
10511;SDS011;5304;48.604;2.096;2023-01-30T08:38:18;19.93;;;12.37;;
10511;SDS011;5304;48.604;2.096;2023-01-30T08:41:03;23.13;;;13.63;;
10511;SDS011;5304;48.604;2.096;2023-01-30T08:43:49;21.03;;;12.77;;
10511;SDS011;5304;48.604;2.096;2023-01-30T08:46:33;21.07;;;12.70;;
10511;SDS011;5304;48.604;2.096;2023-01-30T08:49:17;20.70;;;11.63;;
10511;SDS011;5304;48.604;2.096;2023-01-30T08:52:04;24.60;;;12.47;;
10511;SDS011;5304;48.604;2.096;2023-01-30T08:54:48;19.80;;;11.90;;
10511;SDS011;5304;48.604;2.096;2023-01-30T08:57:33;19.00;;;10.80;;
10511;SDS011;5304;48.604;2.096;2023-01-30T09:00:17;20.37;;;11.90;;
10511;SDS011;5304;48.604;2.096;2023-01-30T09:03:02;19.97;;;12.17;;
10511;SDS011;5304;48.604;2.096;2023-01-30T09:05:53;19.10;;;11.07;;
10511;SDS011;5304;48.604;2.096;2023-01-30T09:08:39;18.07;;;11.27;;
10511;SDS011;5304;48.604;2.096;2023-01-30T09:11:23;18.90;;;11.63;;
10511;SDS011;5304;48.604;2.096;2023-01-30T09:14:08;19.77;;;12.23;;
10511;SDS011;5304;48.604;2.096;2023-01-30T09:16:52;16.90;;;11.10;;
10511;SDS011;5304;48.604;2.096;2023-01-30T09:19:40;18.00;;;10.97;;
10511;SDS011;5304;48.604;2.096;2023-01-30T09:22:24;19.43;;;12.03;;
10511;SDS011;5304;48.604;2.096;2023-01-30T09:25:09;20.13;;;12.23;;
10511;SDS011;5304;48.604;2.096;2023-01-30T09:27:53;14.33;;;10.10;;
10511;SDS011;5304;48.604;2.096;2023-01-30T09:30:38;16.53;;;10.00;;
10511;SDS011;5304;48.604;2.096;2023-01-30T09:33:22;14.63;;;9.17;;
10511;SDS011;5304;48.604;2.096;2023-01-30T09:36:07;14.93;;;9.63;;
10511;SDS011;5304;48.604;2.096;2023-01-30T09:38:52;16.53;;;9.70;;
10511;SDS011;5304;48.604;2.096;2023-01-30T09:44:55;15.40;;;8.77;;
10511;SDS011;5304;48.604;2.096;2023-01-30T09:48:05;13.87;;;8.83;;
10511;SDS011;5304;48.604;2.096;2023-01-30T09:51:17;13.43;;;8.40;;
10511;SDS011;5304;48.604;2.096;2023-01-30T09:54:15;13.43;;;9.00;;
10511;SDS011;5304;48.604;2.096;2023-01-30T09:57:09;12.63;;;7.80;;
10511;SDS011;5304;48.604;2.096;2023-01-30T10:05:53;14.37;;;9.50;;
10511;SDS011;5304;48.604;2.096;2023-01-30T10:11:52;13.97;;;9.03;;
10511;SDS011;5304;48.604;2.096;2023-01-30T10:20:51;17.43;;;9.80;;
10511;SDS011;5304;48.604;2.096;2023-01-30T10:27:00;14.33;;;8.40;;
10511;SDS011;5304;48.604;2.096;2023-01-30T10:29:50;14.07;;;8.63;;
10511;SDS011;5304;48.604;2.096;2023-01-30T10:32:41;14.50;;;9.10;;
10511;SDS011;5304;48.604;2.096;2023-01-30T10:35:33;16.83;;;10.27;;
10511;SDS011;5304;48.604;2.096;2023-01-30T10:38:25;13.20;;;8.50;;
10511;SDS011;5304;48.604;2.096;2023-01-30T10:41:31;16.37;;;9.37;;
10511;SDS011;5304;48.604;2.096;2023-01-30T10:44:21;12.07;;;8.90;;
10511;SDS011;5304;48.604;2.096;2023-01-30T10:50:15;15.07;;;8.53;;
10511;SDS011;5304;48.604;2.096;2023-01-30T10:56:14;13.57;;;8.23;;
10511;SDS011;5304;48.604;2.096;2023-01-30T11:02:22;15.90;;;7.97;;
10511;SDS011;5304;48.604;2.096;2023-01-30T11:05:20;13.90;;;7.63;;
10511;SDS011;5304;48.604;2.096;2023-01-30T11:08:24;12.67;;;7.50;;
10511;SDS011;5304;48.604;2.096;2023-01-30T11:17:39;12.87;;;7.60;;
10511;SDS011;5304;48.604;2.096;2023-01-30T11:20:25;12.90;;;7.50;;
10511;SDS011;5304;48.604;2.096;2023-01-30T11:26:28;10.87;;;6.77;;
10511;SDS011;5304;48.604;2.096;2023-01-30T11:29:25;14.53;;;8.97;;
10511;SDS011;5304;48.604;2.096;2023-01-30T11:32:20;12.20;;;7.60;;
10511;SDS011;5304;48.604;2.096;2023-01-30T11:35:16;14.47;;;7.77;;
10511;SDS011;5304;48.604;2.096;2023-01-30T11:38:20;13.67;;;8.13;;
10511;SDS011;5304;48.604;2.096;2023-01-30T11:41:28;13.57;;;8.50;;
10511;SDS011;5304;48.604;2.096;2023-01-30T11:44:13;15.63;;;8.97;;
10511;SDS011;5304;48.604;2.096;2023-01-30T11:47:06;12.60;;;9.63;;
10511;SDS011;5304;48.604;2.096;2023-01-30T11:49:53;12.20;;;6.90;;
10511;SDS011;5304;48.604;2.096;2023-01-30T11:52:41;9.73;;;6.60;;
10511;SDS011;5304;48.604;2.096;2023-01-30T11:55:29;9.40;;;5.83;;
10511;SDS011;5304;48.604;2.096;2023-01-30T11:58:19;8.80;;;5.80;;
10511;SDS011;5304;48.604;2.096;2023-01-30T12:01:04;8.57;;;6.43;;
10511;SDS011;5304;48.604;2.096;2023-01-30T12:03:52;8.60;;;5.83;;
10511;SDS011;5304;48.604;2.096;2023-01-30T12:06:39;10.60;;;7.00;;
10511;SDS011;5304;48.604;2.096;2023-01-30T12:09:35;6.87;;;5.37;;
10511;SDS011;5304;48.604;2.096;2023-01-30T12:15:33;11.03;;;6.97;;
10511;SDS011;5304;48.604;2.096;2023-01-30T12:18:20;10.23;;;6.87;;
10511;SDS011;5304;48.604;2.096;2023-01-30T12:21:12;10.30;;;5.80;;
10511;SDS011;5304;48.604;2.096;2023-01-30T12:27:04;9.70;;;6.20;;
10511;SDS011;5304;48.604;2.096;2023-01-30T12:33:18;10.37;;;5.53;;
10511;SDS011;5304;48.604;2.096;2023-01-30T12:39:04;10.43;;;6.90;;
10511;SDS011;5304;48.604;2.096;2023-01-30T12:45:00;9.63;;;6.77;;
10511;SDS011;5304;48.604;2.096;2023-01-30T12:57:46;9.60;;;7.17;;
10511;SDS011;5304;48.604;2.096;2023-01-30T13:00:42;10.03;;;6.83;;
10511;SDS011;5304;48.604;2.096;2023-01-30T13:03:55;11.00;;;6.60;;
10511;SDS011;5304;48.604;2.096;2023-01-30T13:10:01;9.20;;;5.80;;
10511;SDS011;5304;48.604;2.096;2023-01-30T13:19:24;8.40;;;5.27;;
10511;SDS011;5304;48.604;2.096;2023-01-30T13:22:34;7.93;;;6.40;;
10511;SDS011;5304;48.604;2.096;2023-01-30T13:25:37;8.57;;;5.57;;
10511;SDS011;5304;48.604;2.096;2023-01-30T13:28:28;8.93;;;6.60;;
10511;SDS011;5304;48.604;2.096;2023-01-30T13:31:17;7.63;;;5.90;;
10511;SDS011;5304;48.604;2.096;2023-01-30T13:34:10;8.10;;;5.97;;
10511;SDS011;5304;48.604;2.096;2023-01-30T13:37:10;8.73;;;5.53;;
10511;SDS011;5304;48.604;2.096;2023-01-30T13:39:58;7.10;;;6.27;;
10511;SDS011;5304;48.604;2.096;2023-01-30T13:42:58;7.27;;;5.10;;
10511;SDS011;5304;48.604;2.096;2023-01-30T13:45:50;9.30;;;6.20;;
10511;SDS011;5304;48.604;2.096;2023-01-30T13:48:45;10.33;;;7.23;;
10511;SDS011;5304;48.604;2.096;2023-01-30T13:51:42;11.90;;;6.93;;
10511;SDS011;5304;48.604;2.096;2023-01-30T13:57:49;11.17;;;6.87;;
10511;SDS011;5304;48.604;2.096;2023-01-30T14:00:40;10.20;;;6.23;;
10511;SDS011;5304;48.604;2.096;2023-01-30T14:03:35;8.30;;;5.30;;
10511;SDS011;5304;48.604;2.096;2023-01-30T14:06:33;7.00;;;5.10;;
10511;SDS011;5304;48.604;2.096;2023-01-30T14:09:23;8.93;;;6.00;;
10511;SDS011;5304;48.604;2.096;2023-01-30T14:12:21;16.17;;;9.40;;
10511;SDS011;5304;48.604;2.096;2023-01-30T14:18:03;12.77;;;9.50;;
10511;SDS011;5304;48.604;2.096;2023-01-30T14:20:51;9.97;;;7.73;;
10511;SDS011;5304;48.604;2.096;2023-01-30T14:23:57;7.20;;;5.30;;
10511;SDS011;5304;48.604;2.096;2023-01-30T14:35:34;6.77;;;5.10;;
10511;SDS011;5304;48.604;2.096;2023-01-30T14:38:19;10.23;;;6.90;;
10511;SDS011;5304;48.604;2.096;2023-01-30T14:43:50;10.33;;;7.50;;
10511;SDS011;5304;48.604;2.096;2023-01-30T14:46:40;8.83;;;6.27;;
10511;SDS011;5304;48.604;2.096;2023-01-30T14:49:26;32.57;;;25.33;;
10511;SDS011;5304;48.604;2.096;2023-01-30T14:52:45;7.27;;;5.57;;
10511;SDS011;5304;48.604;2.096;2023-01-30T14:55:25;7.93;;;5.40;;
10511;SDS011;5304;48.604;2.096;2023-01-30T14:58:14;5.67;;;4.77;;
10511;SDS011;5304;48.604;2.096;2023-01-30T15:01:01;5.17;;;4.20;;
10511;SDS011;5304;48.604;2.096;2023-01-30T15:03:46;5.50;;;4.17;;
10511;SDS011;5304;48.604;2.096;2023-01-30T15:06:35;6.73;;;4.50;;
10511;SDS011;5304;48.604;2.096;2023-01-30T15:09:21;4.83;;;4.33;;
10511;SDS011;5304;48.604;2.096;2023-01-30T15:22:03;6.43;;;4.00;;
10511;SDS011;5304;48.604;2.096;2023-01-30T15:25:20;5.00;;;4.07;;
10511;SDS011;5304;48.604;2.096;2023-01-30T15:31:35;7.47;;;6.13;;
10511;SDS011;5304;48.604;2.096;2023-01-30T15:34:19;8.40;;;5.00;;
10511;SDS011;5304;48.604;2.096;2023-01-30T15:37:08;7.10;;;5.73;;
10511;SDS011;5304;48.604;2.096;2023-01-30T15:52:11;7.90;;;5.43;;
10511;SDS011;5304;48.604;2.096;2023-01-30T15:55:01;6.97;;;5.20;;
10511;SDS011;5304;48.604;2.096;2023-01-30T15:57:49;6.30;;;4.53;;
10511;SDS011;5304;48.604;2.096;2023-01-30T16:00:46;7.57;;;5.90;;
10511;SDS011;5304;48.604;2.096;2023-01-30T16:03:34;7.40;;;5.80;;
10511;SDS011;5304;48.604;2.096;2023-01-30T16:06:33;6.33;;;4.87;;
10511;SDS011;5304;48.604;2.096;2023-01-30T16:09:20;6.57;;;4.77;;
10511;SDS011;5304;48.604;2.096;2023-01-30T16:12:25;7.20;;;5.20;;
10511;SDS011;5304;48.604;2.096;2023-01-30T16:15:27;7.20;;;5.37;;
10511;SDS011;5304;48.604;2.096;2023-01-30T16:21:33;7.07;;;5.27;;
10511;SDS011;5304;48.604;2.096;2023-01-30T16:24:21;9.73;;;6.07;;
10511;SDS011;5304;48.604;2.096;2023-01-30T16:27:28;7.30;;;5.27;;
10511;SDS011;5304;48.604;2.096;2023-01-30T16:30:23;7.10;;;5.00;;
10511;SDS011;5304;48.604;2.096;2023-01-30T16:33:12;11.70;;;6.37;;
10511;SDS011;5304;48.604;2.096;2023-01-30T16:35:59;7.20;;;5.97;;
10511;SDS011;5304;48.604;2.096;2023-01-30T16:38:43;9.63;;;6.03;;
10511;SDS011;5304;48.604;2.096;2023-01-30T16:41:30;7.63;;;5.40;;
10511;SDS011;5304;48.604;2.096;2023-01-30T16:44:17;6.40;;;5.33;;
10511;SDS011;5304;48.604;2.096;2023-01-30T16:47:04;5.47;;;4.50;;
10511;SDS011;5304;48.604;2.096;2023-01-30T16:49:49;9.57;;;8.07;;
10511;SDS011;5304;48.604;2.096;2023-01-30T16:52:35;12.57;;;10.80;;
10511;SDS011;5304;48.604;2.096;2023-01-30T16:55:27;7.77;;;6.40;;
10511;SDS011;5304;48.604;2.096;2023-01-30T16:58:11;10.87;;;8.50;;
10511;SDS011;5304;48.604;2.096;2023-01-30T17:01:00;11.43;;;8.97;;
10511;SDS011;5304;48.604;2.096;2023-01-30T17:03:50;15.50;;;13.23;;
10511;SDS011;5304;48.604;2.096;2023-01-30T17:06:42;14.00;;;12.53;;
10511;SDS011;5304;48.604;2.096;2023-01-30T17:09:47;11.80;;;10.03;;
10511;SDS011;5304;48.604;2.096;2023-01-30T17:12:33;10.03;;;6.80;;
10511;SDS011;5304;48.604;2.096;2023-01-30T17:18:05;10.23;;;8.17;;
10511;SDS011;5304;48.604;2.096;2023-01-30T17:20:52;9.30;;;7.53;;
10511;SDS011;5304;48.604;2.096;2023-01-30T17:23:36;12.10;;;8.13;;
10511;SDS011;5304;48.604;2.096;2023-01-30T17:26:21;7.80;;;5.77;;
10511;SDS011;5304;48.604;2.096;2023-01-30T17:29:05;14.23;;;7.57;;
10511;SDS011;5304;48.604;2.096;2023-01-30T17:31:50;11.30;;;7.57;;
10511;SDS011;5304;48.604;2.096;2023-01-30T17:34:35;12.73;;;8.53;;
10511;SDS011;5304;48.604;2.096;2023-01-30T17:37:23;12.43;;;7.77;;
10511;SDS011;5304;48.604;2.096;2023-01-30T17:40:13;13.07;;;8.53;;
10511;SDS011;5304;48.604;2.096;2023-01-30T17:42:59;15.17;;;11.30;;
10511;SDS011;5304;48.604;2.096;2023-01-30T17:45:44;12.17;;;10.43;;
10511;SDS011;5304;48.604;2.096;2023-01-30T17:48:28;9.37;;;7.73;;
10511;SDS011;5304;48.604;2.096;2023-01-30T17:51:13;10.33;;;8.10;;
10511;SDS011;5304;48.604;2.096;2023-01-30T17:53:57;13.43;;;8.60;;
10511;SDS011;5304;48.604;2.096;2023-01-30T17:56:43;12.77;;;8.27;;
10511;SDS011;5304;48.604;2.096;2023-01-30T17:59:29;14.10;;;8.97;;
10511;SDS011;5304;48.604;2.096;2023-01-30T18:02:14;11.30;;;8.47;;
10511;SDS011;5304;48.604;2.096;2023-01-30T18:04:58;15.27;;;9.00;;
10511;SDS011;5304;48.604;2.096;2023-01-30T18:07:43;12.93;;;9.03;;
10511;SDS011;5304;48.604;2.096;2023-01-30T18:10:27;14.23;;;10.57;;
10511;SDS011;5304;48.604;2.096;2023-01-30T18:13:12;17.63;;;12.53;;
10511;SDS011;5304;48.604;2.096;2023-01-30T18:15:57;19.27;;;13.40;;
10511;SDS011;5304;48.604;2.096;2023-01-30T18:18:45;50.77;;;27.73;;
10511;SDS011;5304;48.604;2.096;2023-01-30T18:21:30;29.33;;;21.97;;
10511;SDS011;5304;48.604;2.096;2023-01-30T18:24:16;23.17;;;18.13;;
10511;SDS011;5304;48.604;2.096;2023-01-30T18:27:01;23.80;;;17.47;;
10511;SDS011;5304;48.604;2.096;2023-01-30T18:29:46;23.73;;;18.20;;
10511;SDS011;5304;48.604;2.096;2023-01-30T18:32:30;26.30;;;22.10;;
10511;SDS011;5304;48.604;2.096;2023-01-30T18:35:14;19.83;;;14.90;;
10511;SDS011;5304;48.604;2.096;2023-01-30T18:37:59;17.07;;;13.27;;
10511;SDS011;5304;48.604;2.096;2023-01-30T18:40:44;17.30;;;12.83;;
10511;SDS011;5304;48.604;2.096;2023-01-30T18:43:28;25.77;;;16.50;;
10511;SDS011;5304;48.604;2.096;2023-01-30T18:46:14;21.20;;;15.33;;
10511;SDS011;5304;48.604;2.096;2023-01-30T18:49:00;20.17;;;16.20;;
10511;SDS011;5304;48.604;2.096;2023-01-30T18:51:44;19.03;;;15.07;;
10511;SDS011;5304;48.604;2.096;2023-01-30T18:54:29;26.57;;;19.40;;
10511;SDS011;5304;48.604;2.096;2023-01-30T18:57:14;20.87;;;14.63;;
10511;SDS011;5304;48.604;2.096;2023-01-30T18:59:58;18.77;;;15.00;;
10511;SDS011;5304;48.604;2.096;2023-01-30T19:02:43;16.57;;;12.40;;
10511;SDS011;5304;48.604;2.096;2023-01-30T19:05:27;15.17;;;12.17;;
10511;SDS011;5304;48.604;2.096;2023-01-30T19:08:12;18.57;;;12.87;;
10511;SDS011;5304;48.604;2.096;2023-01-30T19:11:30;20.53;;;17.13;;
10511;SDS011;5304;48.604;2.096;2023-01-30T19:14:26;19.77;;;15.13;;
10511;SDS011;5304;48.604;2.096;2023-01-30T19:17:11;21.57;;;15.80;;
10511;SDS011;5304;48.604;2.096;2023-01-30T19:19:57;22.70;;;15.90;;
10511;SDS011;5304;48.604;2.096;2023-01-30T19:22:43;25.23;;;17.73;;
10511;SDS011;5304;48.604;2.096;2023-01-30T19:25:28;24.67;;;17.53;;
10511;SDS011;5304;48.604;2.096;2023-01-30T19:28:12;23.80;;;16.17;;
10511;SDS011;5304;48.604;2.096;2023-01-30T19:30:57;31.07;;;19.47;;